sensor_id;sensor_type;location;lat;lon;timestamp;P1;durP1;ratioP1;P2;durP2;ratioP2
50968;SDS011;36982;51.474;7.228;2022-08-27T00:01:11;10.63;;;8.13;;
50968;SDS011;36982;51.474;7.228;2022-08-27T00:03:40;9.70;;;7.00;;
50968;SDS011;36982;51.474;7.228;2022-08-27T00:06:07;10.43;;;7.13;;
50968;SDS011;36982;51.474;7.228;2022-08-27T00:08:35;10.77;;;6.70;;
50968;SDS011;36982;51.474;7.228;2022-08-27T00:11:00;15.30;;;7.27;;
50968;SDS011;36982;51.474;7.228;2022-08-27T00:13:26;9.33;;;6.73;;
50968;SDS011;36982;51.474;7.228;2022-08-27T00:15:51;9.83;;;7.70;;
50968;SDS011;36982;51.474;7.228;2022-08-27T00:18:18;12.70;;;7.60;;
50968;SDS011;36982;51.474;7.228;2022-08-27T00:20:44;12.30;;;7.47;;
50968;SDS011;36982;51.474;7.228;2022-08-27T00:23:10;11.77;;;7.10;;
50968;SDS011;36982;51.474;7.228;2022-08-27T00:25:36;7.50;;;6.73;;
50968;SDS011;36982;51.474;7.228;2022-08-27T00:28:02;7.37;;;6.40;;
50968;SDS011;36982;51.474;7.228;2022-08-27T00:30:28;8.60;;;7.10;;
50968;SDS011;36982;51.474;7.228;2022-08-27T00:32:53;9.90;;;7.43;;
50968;SDS011;36982;51.474;7.228;2022-08-27T00:35:21;7.13;;;6.43;;
50968;SDS011;36982;51.474;7.228;2022-08-27T00:37:46;9.03;;;6.90;;
50968;SDS011;36982;51.474;7.228;2022-08-27T00:40:14;9.97;;;7.00;;
50968;SDS011;36982;51.474;7.228;2022-08-27T00:42:42;9.27;;;7.30;;
50968;SDS011;36982;51.474;7.228;2022-08-27T00:45:10;9.47;;;7.27;;
50968;SDS011;36982;51.474;7.228;2022-08-27T00:47:40;9.20;;;6.93;;
50968;SDS011;36982;51.474;7.228;2022-08-27T00:50:14;10.00;;;7.53;;
50968;SDS011;36982;51.474;7.228;2022-08-27T00:55:18;7.93;;;5.77;;
50968;SDS011;36982;51.474;7.228;2022-08-27T00:57:50;9.20;;;6.20;;
50968;SDS011;36982;51.474;7.228;2022-08-27T01:00:20;10.17;;;6.60;;
50968;SDS011;36982;51.474;7.228;2022-08-27T01:02:46;10.83;;;6.60;;
50968;SDS011;36982;51.474;7.228;2022-08-27T01:05:13;9.57;;;6.57;;
50968;SDS011;36982;51.474;7.228;2022-08-27T01:07:42;7.73;;;6.27;;
50968;SDS011;36982;51.474;7.228;2022-08-27T01:10:11;12.60;;;8.07;;
50968;SDS011;36982;51.474;7.228;2022-08-27T01:12:40;17.83;;;8.83;;
50968;SDS011;36982;51.474;7.228;2022-08-27T01:15:07;16.50;;;8.77;;
50968;SDS011;36982;51.474;7.228;2022-08-27T01:17:37;12.30;;;6.47;;
50968;SDS011;36982;51.474;7.228;2022-08-27T01:20:04;9.90;;;5.53;;
50968;SDS011;36982;51.474;7.228;2022-08-27T01:22:47;7.60;;;4.90;;
50968;SDS011;36982;51.474;7.228;2022-08-27T01:25:23;10.10;;;6.40;;
50968;SDS011;36982;51.474;7.228;2022-08-27T01:27:50;14.15;;;7.30;;
50968;SDS011;36982;51.474;7.228;2022-08-27T01:30:18;9.05;;;5.28;;
50968;SDS011;36982;51.474;7.228;2022-08-27T01:32:45;11.07;;;5.60;;
50968;SDS011;36982;51.474;7.228;2022-08-27T01:35:12;12.13;;;6.53;;
50968;SDS011;36982;51.474;7.228;2022-08-27T01:37:40;7.57;;;5.93;;
50968;SDS011;36982;51.474;7.228;2022-08-27T01:40:07;7.97;;;6.20;;
50968;SDS011;36982;51.474;7.228;2022-08-27T01:42:35;8.43;;;6.40;;
50968;SDS011;36982;51.474;7.228;2022-08-27T01:45:08;7.83;;;5.80;;
50968;SDS011;36982;51.474;7.228;2022-08-27T01:47:36;7.37;;;5.20;;
50968;SDS011;36982;51.474;7.228;2022-08-27T01:50:03;6.70;;;5.97;;
50968;SDS011;36982;51.474;7.228;2022-08-27T01:52:34;8.73;;;6.33;;
50968;SDS011;36982;51.474;7.228;2022-08-27T01:55:00;12.47;;;7.47;;
50968;SDS011;36982;51.474;7.228;2022-08-27T01:57:26;9.77;;;6.40;;
50968;SDS011;36982;51.474;7.228;2022-08-27T01:59:52;9.67;;;6.50;;
50968;SDS011;36982;51.474;7.228;2022-08-27T02:02:20;8.90;;;5.60;;
50968;SDS011;36982;51.474;7.228;2022-08-27T02:04:46;8.50;;;5.50;;
50968;SDS011;36982;51.474;7.228;2022-08-27T02:07:15;10.27;;;5.63;;
50968;SDS011;36982;51.474;7.228;2022-08-27T02:09:40;6.30;;;5.27;;
50968;SDS011;36982;51.474;7.228;2022-08-27T02:12:06;9.20;;;4.70;;
50968;SDS011;36982;51.474;7.228;2022-08-27T02:14:32;10.20;;;5.27;;
50968;SDS011;36982;51.474;7.228;2022-08-27T02:16:58;7.33;;;4.67;;
50968;SDS011;36982;51.474;7.228;2022-08-27T02:19:24;12.57;;;5.17;;
50968;SDS011;36982;51.474;7.228;2022-08-27T02:21:50;9.90;;;5.10;;
50968;SDS011;36982;51.474;7.228;2022-08-27T02:24:16;7.53;;;4.53;;
50968;SDS011;36982;51.474;7.228;2022-08-27T02:26:42;11.20;;;5.33;;
50968;SDS011;36982;51.474;7.228;2022-08-27T02:29:07;10.83;;;4.70;;
50968;SDS011;36982;51.474;7.228;2022-08-27T02:31:33;9.47;;;4.80;;
50968;SDS011;36982;51.474;7.228;2022-08-27T02:34:00;12.63;;;4.73;;
50968;SDS011;36982;51.474;7.228;2022-08-27T02:36:26;7.20;;;4.40;;
50968;SDS011;36982;51.474;7.228;2022-08-27T02:38:52;8.13;;;4.50;;
50968;SDS011;36982;51.474;7.228;2022-08-27T02:41:19;14.87;;;4.97;;
50968;SDS011;36982;51.474;7.228;2022-08-27T02:43:44;9.87;;;4.57;;
50968;SDS011;36982;51.474;7.228;2022-08-27T02:46:10;8.67;;;4.63;;
50968;SDS011;36982;51.474;7.228;2022-08-27T02:48:39;8.13;;;3.93;;
50968;SDS011;36982;51.474;7.228;2022-08-27T02:51:06;9.37;;;4.40;;
50968;SDS011;36982;51.474;7.228;2022-08-27T02:53:33;8.33;;;4.20;;
50968;SDS011;36982;51.474;7.228;2022-08-27T02:56:00;6.17;;;4.30;;
50968;SDS011;36982;51.474;7.228;2022-08-27T02:58:26;9.70;;;4.63;;
50968;SDS011;36982;51.474;7.228;2022-08-27T03:00:52;9.53;;;4.40;;
50968;SDS011;36982;51.474;7.228;2022-08-27T03:03:17;7.07;;;3.87;;
50968;SDS011;36982;51.474;7.228;2022-08-27T03:05:43;6.80;;;3.60;;
50968;SDS011;36982;51.474;7.228;2022-08-27T03:08:09;9.17;;;4.47;;
50968;SDS011;36982;51.474;7.228;2022-08-27T03:10:35;10.10;;;4.00;;
50968;SDS011;36982;51.474;7.228;2022-08-27T03:13:01;8.57;;;4.57;;
50968;SDS011;36982;51.474;7.228;2022-08-27T03:15:27;7.27;;;4.37;;
50968;SDS011;36982;51.474;7.228;2022-08-27T03:17:52;7.63;;;4.20;;
50968;SDS011;36982;51.474;7.228;2022-08-27T03:20:37;6.40;;;3.63;;
50968;SDS011;36982;51.474;7.228;2022-08-27T03:23:05;5.23;;;3.37;;
50968;SDS011;36982;51.474;7.228;2022-08-27T03:25:31;7.17;;;3.70;;
50968;SDS011;36982;51.474;7.228;2022-08-27T03:27:56;6.13;;;3.40;;
50968;SDS011;36982;51.474;7.228;2022-08-27T03:30:22;7.60;;;3.97;;
50968;SDS011;36982;51.474;7.228;2022-08-27T03:32:48;5.83;;;3.50;;
50968;SDS011;36982;51.474;7.228;2022-08-27T03:35:14;9.20;;;4.03;;
50968;SDS011;36982;51.474;7.228;2022-08-27T03:37:40;7.67;;;3.57;;
50968;SDS011;36982;51.474;7.228;2022-08-27T03:40:06;9.47;;;3.60;;
50968;SDS011;36982;51.474;7.228;2022-08-27T03:42:33;8.23;;;4.10;;
50968;SDS011;36982;51.474;7.228;2022-08-27T03:45:00;7.10;;;3.40;;
50968;SDS011;36982;51.474;7.228;2022-08-27T03:47:25;8.90;;;3.53;;
50968;SDS011;36982;51.474;7.228;2022-08-27T03:49:51;7.67;;;3.20;;
50968;SDS011;36982;51.474;7.228;2022-08-27T03:52:17;9.00;;;3.73;;
50968;SDS011;36982;51.474;7.228;2022-08-27T03:54:43;11.60;;;3.43;;
50968;SDS011;36982;51.474;7.228;2022-08-27T03:57:09;8.70;;;3.20;;
50968;SDS011;36982;51.474;7.228;2022-08-27T03:59:35;10.43;;;3.20;;
50968;SDS011;36982;51.474;7.228;2022-08-27T04:02:01;7.93;;;3.53;;
50968;SDS011;36982;51.474;7.228;2022-08-27T04:04:26;3.77;;;2.57;;
50968;SDS011;36982;51.474;7.228;2022-08-27T04:06:52;5.73;;;2.90;;
50968;SDS011;36982;51.474;7.228;2022-08-27T04:09:19;7.83;;;3.50;;
50968;SDS011;36982;51.474;7.228;2022-08-27T04:11:44;10.57;;;3.17;;
50968;SDS011;36982;51.474;7.228;2022-08-27T04:14:10;4.53;;;3.30;;
50968;SDS011;36982;51.474;7.228;2022-08-27T04:16:36;7.00;;;3.37;;
50968;SDS011;36982;51.474;7.228;2022-08-27T04:19:04;5.40;;;3.30;;
50968;SDS011;36982;51.474;7.228;2022-08-27T04:21:29;9.37;;;3.43;;
50968;SDS011;36982;51.474;7.228;2022-08-27T04:23:57;7.47;;;3.37;;
50968;SDS011;36982;51.474;7.228;2022-08-27T04:26:23;5.53;;;3.40;;
50968;SDS011;36982;51.474;7.228;2022-08-27T04:28:49;5.57;;;3.43;;
50968;SDS011;36982;51.474;7.228;2022-08-27T04:31:15;6.73;;;3.07;;
50968;SDS011;36982;51.474;7.228;2022-08-27T04:33:41;7.67;;;3.17;;
50968;SDS011;36982;51.474;7.228;2022-08-27T04:36:09;7.00;;;3.67;;
50968;SDS011;36982;51.474;7.228;2022-08-27T04:38:36;9.37;;;3.73;;
50968;SDS011;36982;51.474;7.228;2022-08-27T04:41:03;5.97;;;4.00;;
50968;SDS011;36982;51.474;7.228;2022-08-27T04:43:57;13.73;;;3.90;;
50968;SDS011;36982;51.474;7.228;2022-08-27T04:46:30;10.33;;;3.80;;
50968;SDS011;36982;51.474;7.228;2022-08-27T04:48:58;6.00;;;3.53;;
50968;SDS011;36982;51.474;7.228;2022-08-27T04:51:26;7.73;;;3.67;;
50968;SDS011;36982;51.474;7.228;2022-08-27T04:53:53;8.50;;;3.70;;
50968;SDS011;36982;51.474;7.228;2022-08-27T04:56:20;8.17;;;3.57;;
50968;SDS011;36982;51.474;7.228;2022-08-27T04:58:47;7.23;;;3.77;;
50968;SDS011;36982;51.474;7.228;2022-08-27T05:01:16;6.30;;;3.47;;
50968;SDS011;36982;51.474;7.228;2022-08-27T05:03:44;7.83;;;3.87;;
50968;SDS011;36982;51.474;7.228;2022-08-27T05:06:10;7.60;;;3.53;;
50968;SDS011;36982;51.474;7.228;2022-08-27T05:08:36;10.07;;;3.90;;
50968;SDS011;36982;51.474;7.228;2022-08-27T05:11:05;10.63;;;3.70;;
50968;SDS011;36982;51.474;7.228;2022-08-27T05:13:34;5.33;;;3.40;;
50968;SDS011;36982;51.474;7.228;2022-08-27T05:16:03;7.07;;;3.70;;
50968;SDS011;36982;51.474;7.228;2022-08-27T05:18:32;6.80;;;3.20;;
50968;SDS011;36982;51.474;7.228;2022-08-27T05:21:00;6.93;;;3.40;;
50968;SDS011;36982;51.474;7.228;2022-08-27T05:23:27;6.07;;;3.83;;
50968;SDS011;36982;51.474;7.228;2022-08-27T05:25:53;7.23;;;3.37;;
50968;SDS011;36982;51.474;7.228;2022-08-27T05:28:20;4.37;;;2.63;;
50968;SDS011;36982;51.474;7.228;2022-08-27T05:30:48;6.87;;;3.03;;
50968;SDS011;36982;51.474;7.228;2022-08-27T05:33:17;6.07;;;2.70;;
50968;SDS011;36982;51.474;7.228;2022-08-27T05:35:45;7.43;;;2.60;;
50968;SDS011;36982;51.474;7.228;2022-08-27T05:38:13;5.43;;;2.80;;
50968;SDS011;36982;51.474;7.228;2022-08-27T05:40:40;6.50;;;2.63;;
50968;SDS011;36982;51.474;7.228;2022-08-27T05:43:08;6.93;;;2.70;;
50968;SDS011;36982;51.474;7.228;2022-08-27T05:45:38;6.67;;;2.80;;
50968;SDS011;36982;51.474;7.228;2022-08-27T05:48:05;7.00;;;2.83;;
50968;SDS011;36982;51.474;7.228;2022-08-27T05:50:32;6.33;;;2.77;;
50968;SDS011;36982;51.474;7.228;2022-08-27T05:52:57;6.57;;;2.57;;
50968;SDS011;36982;51.474;7.228;2022-08-27T05:55:23;5.77;;;2.63;;
50968;SDS011;36982;51.474;7.228;2022-08-27T05:57:49;5.03;;;2.60;;
50968;SDS011;36982;51.474;7.228;2022-08-27T06:00:15;6.20;;;2.63;;
50968;SDS011;36982;51.474;7.228;2022-08-27T06:02:59;5.97;;;2.40;;
50968;SDS011;36982;51.474;7.228;2022-08-27T06:05:24;5.67;;;2.73;;
50968;SDS011;36982;51.474;7.228;2022-08-27T06:07:50;8.60;;;2.53;;
50968;SDS011;36982;51.474;7.228;2022-08-27T06:10:16;6.47;;;2.57;;
50968;SDS011;36982;51.474;7.228;2022-08-27T06:12:41;5.00;;;2.53;;
50968;SDS011;36982;51.474;7.228;2022-08-27T06:15:07;7.90;;;2.70;;
50968;SDS011;36982;51.474;7.228;2022-08-27T06:17:33;4.83;;;2.83;;
50968;SDS011;36982;51.474;7.228;2022-08-27T06:19:59;6.07;;;3.00;;
50968;SDS011;36982;51.474;7.228;2022-08-27T06:22:24;4.93;;;2.97;;
50968;SDS011;36982;51.474;7.228;2022-08-27T06:24:50;7.50;;;3.43;;
50968;SDS011;36982;51.474;7.228;2022-08-27T06:27:16;5.33;;;3.03;;
50968;SDS011;36982;51.474;7.228;2022-08-27T06:29:43;6.70;;;3.23;;
50968;SDS011;36982;51.474;7.228;2022-08-27T06:32:10;8.87;;;3.30;;
50968;SDS011;36982;51.474;7.228;2022-08-27T06:34:37;7.53;;;3.53;;
50968;SDS011;36982;51.474;7.228;2022-08-27T06:37:03;10.30;;;3.73;;
50968;SDS011;36982;51.474;7.228;2022-08-27T06:39:29;4.60;;;2.50;;
50968;SDS011;36982;51.474;7.228;2022-08-27T06:41:55;5.53;;;2.37;;
50968;SDS011;36982;51.474;7.228;2022-08-27T06:44:21;4.60;;;2.57;;
50968;SDS011;36982;51.474;7.228;2022-08-27T06:46:48;8.77;;;2.60;;
50968;SDS011;36982;51.474;7.228;2022-08-27T06:49:14;6.23;;;2.20;;
50968;SDS011;36982;51.474;7.228;2022-08-27T06:51:42;6.70;;;2.60;;
50968;SDS011;36982;51.474;7.228;2022-08-27T06:54:11;6.43;;;2.10;;
50968;SDS011;36982;51.474;7.228;2022-08-27T06:56:37;3.10;;;2.00;;
50968;SDS011;36982;51.474;7.228;2022-08-27T06:59:06;6.37;;;2.07;;
50968;SDS011;36982;51.474;7.228;2022-08-27T07:01:36;5.65;;;2.17;;
50968;SDS011;36982;51.474;7.228;2022-08-27T07:04:05;6.70;;;2.50;;
50968;SDS011;36982;51.474;7.228;2022-08-27T07:06:32;6.40;;;2.40;;
50968;SDS011;36982;51.474;7.228;2022-08-27T07:09:00;5.45;;;2.58;;
50968;SDS011;36982;51.474;7.228;2022-08-27T07:11:26;5.20;;;3.00;;
50968;SDS011;36982;51.474;7.228;2022-08-27T07:13:53;6.30;;;2.87;;
50968;SDS011;36982;51.474;7.228;2022-08-27T07:16:20;6.60;;;2.93;;
50968;SDS011;36982;51.474;7.228;2022-08-27T07:18:50;7.90;;;3.10;;
50968;SDS011;36982;51.474;7.228;2022-08-27T07:21:18;5.97;;;3.27;;
50968;SDS011;36982;51.474;7.228;2022-08-27T07:23:44;5.47;;;3.03;;
50968;SDS011;36982;51.474;7.228;2022-08-27T07:26:12;7.90;;;3.60;;
50968;SDS011;36982;51.474;7.228;2022-08-27T07:28:39;6.80;;;3.47;;
50968;SDS011;36982;51.474;7.228;2022-08-27T07:31:07;5.67;;;3.00;;
50968;SDS011;36982;51.474;7.228;2022-08-27T07:33:34;6.63;;;3.50;;
50968;SDS011;36982;51.474;7.228;2022-08-27T07:36:01;8.37;;;3.47;;
50968;SDS011;36982;51.474;7.228;2022-08-27T07:38:27;9.83;;;3.60;;
50968;SDS011;36982;51.474;7.228;2022-08-27T07:40:53;6.12;;;3.20;;
50968;SDS011;36982;51.474;7.228;2022-08-27T07:43:19;8.25;;;3.75;;
50968;SDS011;36982;51.474;7.228;2022-08-27T07:46:03;5.45;;;2.78;;
50968;SDS011;36982;51.474;7.228;2022-08-27T07:48:29;8.10;;;4.37;;
50968;SDS011;36982;51.474;7.228;2022-08-27T07:50:57;4.40;;;2.53;;
50968;SDS011;36982;51.474;7.228;2022-08-27T07:53:23;5.70;;;3.45;;
50968;SDS011;36982;51.474;7.228;2022-08-27T07:55:49;4.07;;;2.12;;
50968;SDS011;36982;51.474;7.228;2022-08-27T07:58:14;3.62;;;2.15;;
50968;SDS011;36982;51.474;7.228;2022-08-27T08:00:41;5.00;;;2.12;;
50968;SDS011;36982;51.474;7.228;2022-08-27T08:03:09;4.65;;;1.90;;
50968;SDS011;36982;51.474;7.228;2022-08-27T08:05:35;4.37;;;2.05;;
50968;SDS011;36982;51.474;7.228;2022-08-27T08:08:08;7.10;;;2.00;;
50968;SDS011;36982;51.474;7.228;2022-08-27T08:10:34;4.18;;;1.65;;
50968;SDS011;36982;51.474;7.228;2022-08-27T08:13:01;5.28;;;1.90;;
50968;SDS011;36982;51.474;7.228;2022-08-27T08:15:26;2.72;;;1.50;;
50968;SDS011;36982;51.474;7.228;2022-08-27T08:17:52;4.87;;;1.77;;
50968;SDS011;36982;51.474;7.228;2022-08-27T08:20:17;3.90;;;1.62;;
50968;SDS011;36982;51.474;7.228;2022-08-27T08:22:43;7.03;;;1.75;;
50968;SDS011;36982;51.474;7.228;2022-08-27T08:25:09;3.85;;;1.80;;
50968;SDS011;36982;51.474;7.228;2022-08-27T08:27:35;6.22;;;2.05;;
50968;SDS011;36982;51.474;7.228;2022-08-27T08:30:00;3.42;;;1.45;;
50968;SDS011;36982;51.474;7.228;2022-08-27T08:32:26;4.82;;;1.95;;
50968;SDS011;36982;51.474;7.228;2022-08-27T08:34:52;4.68;;;1.98;;
50968;SDS011;36982;51.474;7.228;2022-08-27T08:37:17;3.97;;;1.80;;
50968;SDS011;36982;51.474;7.228;2022-08-27T08:39:43;4.95;;;1.92;;
50968;SDS011;36982;51.474;7.228;2022-08-27T08:42:27;3.80;;;1.75;;
50968;SDS011;36982;51.474;7.228;2022-08-27T08:44:56;5.07;;;1.77;;
50968;SDS011;36982;51.474;7.228;2022-08-27T08:47:29;4.47;;;1.80;;
50968;SDS011;36982;51.474;7.228;2022-08-27T08:57:35;4.12;;;1.75;;
50968;SDS011;36982;51.474;7.228;2022-08-27T09:00:35;5.03;;;2.10;;
50968;SDS011;36982;51.474;7.228;2022-08-27T09:03:02;4.10;;;2.03;;
50968;SDS011;36982;51.474;7.228;2022-08-27T09:05:28;4.15;;;1.92;;
50968;SDS011;36982;51.474;7.228;2022-08-27T09:08:29;6.32;;;1.80;;
50968;SDS011;36982;51.474;7.228;2022-08-27T09:11:19;4.10;;;2.00;;
50968;SDS011;36982;51.474;7.228;2022-08-27T09:14:00;3.12;;;1.70;;
50968;SDS011;36982;51.474;7.228;2022-08-27T09:16:29;4.55;;;1.83;;
50968;SDS011;36982;51.474;7.228;2022-08-27T09:18:56;8.18;;;1.80;;
50968;SDS011;36982;51.474;7.228;2022-08-27T09:26:53;7.40;;;1.80;;
50968;SDS011;36982;51.474;7.228;2022-08-27T09:29:19;4.93;;;1.58;;
50968;SDS011;36982;51.474;7.228;2022-08-27T09:31:56;3.03;;;1.52;;
50968;SDS011;36982;51.474;7.228;2022-08-27T09:34:24;2.12;;;1.40;;
50968;SDS011;36982;51.474;7.228;2022-08-27T09:37:03;4.32;;;1.62;;
50968;SDS011;36982;51.474;7.228;2022-08-27T09:42:23;2.95;;;1.55;;
50968;SDS011;36982;51.474;7.228;2022-08-27T09:44:51;5.28;;;1.67;;
50968;SDS011;36982;51.474;7.228;2022-08-27T09:47:19;5.10;;;1.62;;
50968;SDS011;36982;51.474;7.228;2022-08-27T09:49:45;5.60;;;1.83;;
50968;SDS011;36982;51.474;7.228;2022-08-27T09:52:12;3.10;;;1.80;;
50968;SDS011;36982;51.474;7.228;2022-08-27T09:54:56;3.30;;;1.50;;
50968;SDS011;36982;51.474;7.228;2022-08-27T09:57:30;5.15;;;1.55;;
50968;SDS011;36982;51.474;7.228;2022-08-27T09:59:58;3.12;;;1.30;;
50968;SDS011;36982;51.474;7.228;2022-08-27T10:02:24;3.85;;;1.90;;
50968;SDS011;36982;51.474;7.228;2022-08-27T10:04:52;4.05;;;1.50;;
50968;SDS011;36982;51.474;7.228;2022-08-27T10:13:04;4.95;;;1.62;;
50968;SDS011;36982;51.474;7.228;2022-08-27T10:15:40;4.80;;;1.75;;
50968;SDS011;36982;51.474;7.228;2022-08-27T10:21:23;4.65;;;1.67;;
50968;SDS011;36982;51.474;7.228;2022-08-27T10:29:27;3.42;;;1.50;;
50968;SDS011;36982;51.474;7.228;2022-08-27T10:42:27;4.87;;;1.50;;
50968;SDS011;36982;51.474;7.228;2022-08-27T10:47:39;5.05;;;1.95;;
50968;SDS011;36982;51.474;7.228;2022-08-27T10:50:24;2.97;;;1.52;;
50968;SDS011;36982;51.474;7.228;2022-08-27T10:53:38;6.32;;;1.80;;
50968;SDS011;36982;51.474;7.228;2022-08-27T10:56:38;4.03;;;1.70;;
50968;SDS011;36982;51.474;7.228;2022-08-27T11:01:35;3.87;;;1.48;;
50968;SDS011;36982;51.474;7.228;2022-08-27T11:04:58;3.08;;;1.48;;
50968;SDS011;36982;51.474;7.228;2022-08-27T11:07:08;3.60;;;1.40;;
50968;SDS011;36982;51.474;7.228;2022-08-27T11:09:46;4.25;;;1.65;;
50968;SDS011;36982;51.474;7.228;2022-08-27T11:12:16;2.62;;;1.20;;
50968;SDS011;36982;51.474;7.228;2022-08-27T11:20:18;3.58;;;1.70;;
50968;SDS011;36982;51.474;7.228;2022-08-27T11:22:52;4.05;;;1.37;;
50968;SDS011;36982;51.474;7.228;2022-08-27T11:28:22;2.08;;;1.27;;
50968;SDS011;36982;51.474;7.228;2022-08-27T11:33:43;5.12;;;1.70;;
50968;SDS011;36982;51.474;7.228;2022-08-27T11:39:15;5.03;;;1.30;;
50968;SDS011;36982;51.474;7.228;2022-08-27T11:44:42;4.75;;;1.37;;
50968;SDS011;36982;51.474;7.228;2022-08-27T11:47:18;4.70;;;1.48;;
50968;SDS011;36982;51.474;7.228;2022-08-27T11:49:48;2.80;;;1.40;;
50968;SDS011;36982;51.474;7.228;2022-08-27T11:52:21;4.30;;;1.50;;
50968;SDS011;36982;51.474;7.228;2022-08-27T11:57:43;2.00;;;1.23;;
50968;SDS011;36982;51.474;7.228;2022-08-27T12:02:57;2.60;;;1.65;;
50968;SDS011;36982;51.474;7.228;2022-08-27T12:05:42;2.25;;;1.50;;
50968;SDS011;36982;51.474;7.228;2022-08-27T12:22:35;5.30;;;1.65;;
50968;SDS011;36982;51.474;7.228;2022-08-27T12:25:22;5.78;;;1.70;;
50968;SDS011;36982;51.474;7.228;2022-08-27T12:28:03;2.92;;;1.65;;
50968;SDS011;36982;51.474;7.228;2022-08-27T12:30:38;4.68;;;1.90;;
50968;SDS011;36982;51.474;7.228;2022-08-27T12:35:53;8.25;;;4.00;;
50968;SDS011;36982;51.474;7.228;2022-08-27T12:40:59;5.10;;;2.42;;
50968;SDS011;36982;51.474;7.228;2022-08-27T12:43:32;2.95;;;1.60;;
50968;SDS011;36982;51.474;7.228;2022-08-27T12:46:00;2.28;;;1.55;;
50968;SDS011;36982;51.474;7.228;2022-08-27T12:48:37;2.95;;;1.50;;
50968;SDS011;36982;51.474;7.228;2022-08-27T12:51:08;2.95;;;1.60;;
50968;SDS011;36982;51.474;7.228;2022-08-27T13:04:47;2.50;;;1.50;;
50968;SDS011;36982;51.474;7.228;2022-08-27T13:07:30;3.85;;;1.37;;
50968;SDS011;36982;51.474;7.228;2022-08-27T13:13:01;2.65;;;1.50;;
50968;SDS011;36982;51.474;7.228;2022-08-27T13:15:41;3.78;;;1.45;;
50968;SDS011;36982;51.474;7.228;2022-08-27T13:18:19;3.40;;;1.50;;
50968;SDS011;36982;51.474;7.228;2022-08-27T13:20:45;2.00;;;1.20;;
50968;SDS011;36982;51.474;7.228;2022-08-27T13:23:18;4.37;;;1.58;;
50968;SDS011;36982;51.474;7.228;2022-08-27T13:28:31;4.30;;;1.42;;
50968;SDS011;36982;51.474;7.228;2022-08-27T13:30:58;2.00;;;1.27;;
50968;SDS011;36982;51.474;7.228;2022-08-27T13:33:26;4.47;;;1.27;;
50968;SDS011;36982;51.474;7.228;2022-08-27T13:35:54;3.15;;;1.23;;
50968;SDS011;36982;51.474;7.228;2022-08-27T13:38:25;3.65;;;1.20;;
50968;SDS011;36982;51.474;7.228;2022-08-27T13:41:00;3.90;;;2.05;;
50968;SDS011;36982;51.474;7.228;2022-08-27T13:43:33;3.25;;;1.30;;
50968;SDS011;36982;51.474;7.228;2022-08-27T13:46:12;4.72;;;1.95;;
50968;SDS011;36982;51.474;7.228;2022-08-27T13:48:42;3.65;;;1.60;;
50968;SDS011;36982;51.474;7.228;2022-08-27T13:51:10;3.78;;;1.33;;
50968;SDS011;36982;51.474;7.228;2022-08-27T13:53:41;3.67;;;1.40;;
50968;SDS011;36982;51.474;7.228;2022-08-27T13:56:29;2.33;;;1.33;;
50968;SDS011;36982;51.474;7.228;2022-08-27T14:01:32;2.70;;;1.37;;
50968;SDS011;36982;51.474;7.228;2022-08-27T14:04:06;2.80;;;1.73;;
50968;SDS011;36982;51.474;7.228;2022-08-27T14:06:37;3.12;;;1.98;;
50968;SDS011;36982;51.474;7.228;2022-08-27T14:09:07;1.77;;;1.48;;
50968;SDS011;36982;51.474;7.228;2022-08-27T14:11:33;2.95;;;1.45;;
50968;SDS011;36982;51.474;7.228;2022-08-27T14:13:59;3.92;;;1.75;;
50968;SDS011;36982;51.474;7.228;2022-08-27T14:19:23;3.87;;;1.37;;
50968;SDS011;36982;51.474;7.228;2022-08-27T14:21:51;2.87;;;1.83;;
50968;SDS011;36982;51.474;7.228;2022-08-27T14:24:17;5.03;;;1.60;;
50968;SDS011;36982;51.474;7.228;2022-08-27T14:26:42;3.62;;;1.33;;
50968;SDS011;36982;51.474;7.228;2022-08-27T14:29:12;3.40;;;1.12;;
50968;SDS011;36982;51.474;7.228;2022-08-27T14:31:37;2.25;;;1.30;;
50968;SDS011;36982;51.474;7.228;2022-08-27T14:34:03;2.25;;;1.35;;
50968;SDS011;36982;51.474;7.228;2022-08-27T14:36:30;4.07;;;1.25;;
50968;SDS011;36982;51.474;7.228;2022-08-27T14:38:58;3.25;;;1.37;;
50968;SDS011;36982;51.474;7.228;2022-08-27T14:41:24;3.85;;;1.45;;
50968;SDS011;36982;51.474;7.228;2022-08-27T14:43:49;2.30;;;1.35;;
50968;SDS011;36982;51.474;7.228;2022-08-27T14:46:17;5.25;;;1.45;;
50968;SDS011;36982;51.474;7.228;2022-08-27T14:48:48;4.18;;;1.40;;
50968;SDS011;36982;51.474;7.228;2022-08-27T14:51:15;6.62;;;1.48;;
50968;SDS011;36982;51.474;7.228;2022-08-27T14:53:46;2.70;;;1.37;;
50968;SDS011;36982;51.474;7.228;2022-08-27T14:56:11;6.32;;;1.50;;
50968;SDS011;36982;51.474;7.228;2022-08-27T14:58:37;2.87;;;1.27;;
50968;SDS011;36982;51.474;7.228;2022-08-27T15:01:03;2.62;;;1.42;;
50968;SDS011;36982;51.474;7.228;2022-08-27T15:03:29;3.40;;;1.42;;
50968;SDS011;36982;51.474;7.228;2022-08-27T15:05:56;3.72;;;1.60;;
50968;SDS011;36982;51.474;7.228;2022-08-27T15:08:22;4.32;;;1.45;;
50968;SDS011;36982;51.474;7.228;2022-08-27T15:10:49;6.93;;;2.10;;
50968;SDS011;36982;51.474;7.228;2022-08-27T15:13:15;3.20;;;1.55;;
50968;SDS011;36982;51.474;7.228;2022-08-27T15:15:41;2.65;;;1.50;;
50968;SDS011;36982;51.474;7.228;2022-08-27T15:18:07;7.72;;;1.73;;
50968;SDS011;36982;51.474;7.228;2022-08-27T15:20:33;2.75;;;1.52;;
50968;SDS011;36982;51.474;7.228;2022-08-27T15:22:59;3.75;;;1.80;;
50968;SDS011;36982;51.474;7.228;2022-08-27T15:25:26;2.85;;;1.48;;
50968;SDS011;36982;51.474;7.228;2022-08-27T15:27:52;6.37;;;2.10;;
50968;SDS011;36982;51.474;7.228;2022-08-27T15:30:25;4.03;;;1.65;;
50968;SDS011;36982;51.474;7.228;2022-08-27T15:32:52;6.32;;;1.75;;
50968;SDS011;36982;51.474;7.228;2022-08-27T15:35:19;4.15;;;1.33;;
50968;SDS011;36982;51.474;7.228;2022-08-27T15:37:49;3.53;;;1.33;;
50968;SDS011;36982;51.474;7.228;2022-08-27T15:40:15;4.75;;;1.55;;
50968;SDS011;36982;51.474;7.228;2022-08-27T15:42:42;3.30;;;1.23;;
50968;SDS011;36982;51.474;7.228;2022-08-27T15:45:08;3.05;;;1.67;;
50968;SDS011;36982;51.474;7.228;2022-08-27T15:47:35;4.70;;;1.75;;
50968;SDS011;36982;51.474;7.228;2022-08-27T15:50:01;4.32;;;1.52;;
50968;SDS011;36982;51.474;7.228;2022-08-27T15:52:29;3.22;;;1.40;;
50968;SDS011;36982;51.474;7.228;2022-08-27T15:54:54;4.45;;;1.83;;
50968;SDS011;36982;51.474;7.228;2022-08-27T15:57:20;4.07;;;1.50;;
50968;SDS011;36982;51.474;7.228;2022-08-27T15:59:46;2.60;;;1.50;;
50968;SDS011;36982;51.474;7.228;2022-08-27T16:02:16;4.80;;;1.42;;
50968;SDS011;36982;51.474;7.228;2022-08-27T16:04:45;3.35;;;1.50;;
50968;SDS011;36982;51.474;7.228;2022-08-27T16:07:12;3.67;;;1.77;;
50968;SDS011;36982;51.474;7.228;2022-08-27T16:09:38;2.37;;;1.30;;
50968;SDS011;36982;51.474;7.228;2022-08-27T16:12:04;3.78;;;1.27;;
50968;SDS011;36982;51.474;7.228;2022-08-27T16:14:30;4.90;;;1.70;;
50968;SDS011;36982;51.474;7.228;2022-08-27T16:16:56;2.67;;;1.33;;
50968;SDS011;36982;51.474;7.228;2022-08-27T16:19:22;3.70;;;1.33;;
50968;SDS011;36982;51.474;7.228;2022-08-27T16:21:48;1.55;;;1.37;;
50968;SDS011;36982;51.474;7.228;2022-08-27T16:24:15;2.42;;;1.23;;
50968;SDS011;36982;51.474;7.228;2022-08-27T16:26:40;5.80;;;1.40;;
50968;SDS011;36982;51.474;7.228;2022-08-27T16:29:06;2.85;;;1.25;;
50968;SDS011;36982;51.474;7.228;2022-08-27T16:31:32;6.07;;;1.58;;
50968;SDS011;36982;51.474;7.228;2022-08-27T16:33:59;6.70;;;2.33;;
50968;SDS011;36982;51.474;7.228;2022-08-27T16:36:24;4.65;;;1.55;;
50968;SDS011;36982;51.474;7.228;2022-08-27T16:38:50;5.00;;;1.60;;
50968;SDS011;36982;51.474;7.228;2022-08-27T16:41:16;5.80;;;2.15;;
50968;SDS011;36982;51.474;7.228;2022-08-27T16:43:42;4.85;;;1.80;;
50968;SDS011;36982;51.474;7.228;2022-08-27T16:46:08;5.78;;;1.48;;
50968;SDS011;36982;51.474;7.228;2022-08-27T16:48:34;4.47;;;1.60;;